sensor_id;sensor_type;location;lat;lon;timestamp;P1;durP1;ratioP1;P2;durP2;ratioP2
37535;SDS011;23379;51.554;6.736;2023-06-22T00:02:13;17.40;;;10.82;;
37535;SDS011;23379;51.554;6.736;2023-06-22T00:04:38;15.38;;;11.45;;
37535;SDS011;23379;51.554;6.736;2023-06-22T00:07:04;21.67;;;12.00;;
37535;SDS011;23379;51.554;6.736;2023-06-22T00:09:30;13.70;;;10.82;;
37535;SDS011;23379;51.554;6.736;2023-06-22T00:11:56;12.90;;;10.15;;
37535;SDS011;23379;51.554;6.736;2023-06-22T00:14:21;17.20;;;11.40;;
37535;SDS011;23379;51.554;6.736;2023-06-22T00:16:47;20.20;;;10.77;;
37535;SDS011;23379;51.554;6.736;2023-06-22T00:19:13;15.70;;;10.38;;
37535;SDS011;23379;51.554;6.736;2023-06-22T00:21:40;17.85;;;12.35;;
37535;SDS011;23379;51.554;6.736;2023-06-22T00:24:05;18.27;;;12.38;;
37535;SDS011;23379;51.554;6.736;2023-06-22T00:26:31;17.48;;;11.32;;
37535;SDS011;23379;51.554;6.736;2023-06-22T00:28:56;17.48;;;12.48;;
37535;SDS011;23379;51.554;6.736;2023-06-22T00:31:22;18.00;;;12.48;;
37535;SDS011;23379;51.554;6.736;2023-06-22T00:33:47;19.98;;;12.32;;
37535;SDS011;23379;51.554;6.736;2023-06-22T00:36:15;17.20;;;11.80;;
37535;SDS011;23379;51.554;6.736;2023-06-22T00:38:41;18.60;;;12.32;;
37535;SDS011;23379;51.554;6.736;2023-06-22T00:41:07;20.90;;;12.82;;
37535;SDS011;23379;51.554;6.736;2023-06-22T00:43:32;16.40;;;11.10;;
37535;SDS011;23379;51.554;6.736;2023-06-22T00:45:57;16.23;;;13.38;;
37535;SDS011;23379;51.554;6.736;2023-06-22T00:48:23;19.42;;;13.32;;
37535;SDS011;23379;51.554;6.736;2023-06-22T00:50:49;15.65;;;12.73;;
37535;SDS011;23379;51.554;6.736;2023-06-22T00:53:16;16.05;;;11.75;;
37535;SDS011;23379;51.554;6.736;2023-06-22T00:55:43;20.35;;;12.30;;
37535;SDS011;23379;51.554;6.736;2023-06-22T00:58:10;15.90;;;12.02;;
37535;SDS011;23379;51.554;6.736;2023-06-22T01:00:37;15.07;;;11.50;;
37535;SDS011;23379;51.554;6.736;2023-06-22T01:03:09;17.90;;;13.43;;
37535;SDS011;23379;51.554;6.736;2023-06-22T01:05:34;21.38;;;14.73;;
37535;SDS011;23379;51.554;6.736;2023-06-22T01:10:45;21.00;;;14.32;;
37535;SDS011;23379;51.554;6.736;2023-06-22T01:16:29;20.13;;;15.75;;
37535;SDS011;23379;51.554;6.736;2023-06-22T01:18:56;20.15;;;15.43;;
37535;SDS011;23379;51.554;6.736;2023-06-22T01:21:26;21.10;;;17.63;;
37535;SDS011;23379;51.554;6.736;2023-06-22T01:29:46;22.85;;;17.75;;
37535;SDS011;23379;51.554;6.736;2023-06-22T01:32:15;25.92;;;19.60;;
37535;SDS011;23379;51.554;6.736;2023-06-22T01:34:42;20.95;;;18.42;;
37535;SDS011;23379;51.554;6.736;2023-06-22T01:37:07;29.38;;;21.58;;
37535;SDS011;23379;51.554;6.736;2023-06-22T01:39:33;22.35;;;18.75;;
37535;SDS011;23379;51.554;6.736;2023-06-22T01:41:59;20.67;;;15.68;;
37535;SDS011;23379;51.554;6.736;2023-06-22T01:44:25;21.27;;;15.18;;
37535;SDS011;23379;51.554;6.736;2023-06-22T01:46:51;19.55;;;14.38;;
37535;SDS011;23379;51.554;6.736;2023-06-22T01:49:17;17.00;;;14.02;;
37535;SDS011;23379;51.554;6.736;2023-06-22T01:51:43;22.02;;;13.85;;
37535;SDS011;23379;51.554;6.736;2023-06-22T01:54:08;19.85;;;13.13;;
37535;SDS011;23379;51.554;6.736;2023-06-22T01:56:34;18.40;;;13.90;;
37535;SDS011;23379;51.554;6.736;2023-06-22T02:01:44;21.27;;;14.70;;
37535;SDS011;23379;51.554;6.736;2023-06-22T02:04:19;21.15;;;13.85;;
37535;SDS011;23379;51.554;6.736;2023-06-22T02:06:49;16.33;;;12.73;;
37535;SDS011;23379;51.554;6.736;2023-06-22T02:09:20;16.15;;;12.45;;
37535;SDS011;23379;51.554;6.736;2023-06-22T02:11:47;18.45;;;13.40;;
37535;SDS011;23379;51.554;6.736;2023-06-22T02:14:13;15.77;;;12.85;;
37535;SDS011;23379;51.554;6.736;2023-06-22T02:16:40;17.92;;;13.48;;
37535;SDS011;23379;51.554;6.736;2023-06-22T02:19:06;18.23;;;13.27;;
37535;SDS011;23379;51.554;6.736;2023-06-22T02:21:33;14.48;;;12.45;;
37535;SDS011;23379;51.554;6.736;2023-06-22T02:23:59;16.80;;;12.80;;
37535;SDS011;23379;51.554;6.736;2023-06-22T02:26:25;18.08;;;13.73;;
37535;SDS011;23379;51.554;6.736;2023-06-22T02:28:51;16.42;;;13.50;;
37535;SDS011;23379;51.554;6.736;2023-06-22T02:31:17;18.27;;;13.43;;
37535;SDS011;23379;51.554;6.736;2023-06-22T02:33:42;21.00;;;14.05;;
37535;SDS011;23379;51.554;6.736;2023-06-22T02:36:08;17.98;;;14.40;;
37535;SDS011;23379;51.554;6.736;2023-06-22T02:38:37;17.05;;;13.75;;
37535;SDS011;23379;51.554;6.736;2023-06-22T02:41:02;19.52;;;13.95;;
37535;SDS011;23379;51.554;6.736;2023-06-22T02:43:28;20.20;;;14.20;;
37535;SDS011;23379;51.554;6.736;2023-06-22T02:45:53;20.85;;;14.50;;
37535;SDS011;23379;51.554;6.736;2023-06-22T02:48:19;15.82;;;14.13;;
37535;SDS011;23379;51.554;6.736;2023-06-22T02:50:44;22.25;;;14.75;;
37535;SDS011;23379;51.554;6.736;2023-06-22T02:53:09;17.42;;;14.60;;
37535;SDS011;23379;51.554;6.736;2023-06-22T02:55:35;18.70;;;15.10;;
37535;SDS011;23379;51.554;6.736;2023-06-22T02:58:00;20.15;;;14.68;;
37535;SDS011;23379;51.554;6.736;2023-06-22T03:00:29;21.08;;;14.23;;
37535;SDS011;23379;51.554;6.736;2023-06-22T03:02:55;17.70;;;14.27;;
37535;SDS011;23379;51.554;6.736;2023-06-22T03:05:21;21.25;;;15.45;;
37535;SDS011;23379;51.554;6.736;2023-06-22T03:07:46;19.00;;;15.15;;
37535;SDS011;23379;51.554;6.736;2023-06-22T03:10:12;18.92;;;14.85;;
37535;SDS011;23379;51.554;6.736;2023-06-22T03:12:38;21.80;;;14.80;;
37535;SDS011;23379;51.554;6.736;2023-06-22T03:15:08;24.83;;;15.70;;
37535;SDS011;23379;51.554;6.736;2023-06-22T03:17:35;22.00;;;15.60;;
37535;SDS011;23379;51.554;6.736;2023-06-22T03:20:02;23.27;;;15.02;;
37535;SDS011;23379;51.554;6.736;2023-06-22T03:22:35;17.58;;;15.63;;
37535;SDS011;23379;51.554;6.736;2023-06-22T03:25:01;21.35;;;16.15;;
37535;SDS011;23379;51.554;6.736;2023-06-22T03:27:27;21.52;;;16.00;;
37535;SDS011;23379;51.554;6.736;2023-06-22T03:29:52;24.63;;;17.38;;
37535;SDS011;23379;51.554;6.736;2023-06-22T03:32:18;19.67;;;16.08;;
37535;SDS011;23379;51.554;6.736;2023-06-22T03:34:43;20.90;;;16.45;;
37535;SDS011;23379;51.554;6.736;2023-06-22T03:37:12;20.17;;;17.00;;
37535;SDS011;23379;51.554;6.736;2023-06-22T03:39:38;20.20;;;17.02;;
37535;SDS011;23379;51.554;6.736;2023-06-22T03:42:04;21.13;;;17.25;;
37535;SDS011;23379;51.554;6.736;2023-06-22T03:44:29;21.63;;;17.13;;
37535;SDS011;23379;51.554;6.736;2023-06-22T03:46:55;21.50;;;16.77;;
37535;SDS011;23379;51.554;6.736;2023-06-22T03:49:20;22.63;;;16.42;;
37535;SDS011;23379;51.554;6.736;2023-06-22T03:51:45;21.85;;;16.88;;
37535;SDS011;23379;51.554;6.736;2023-06-22T03:54:11;17.88;;;15.95;;
37535;SDS011;23379;51.554;6.736;2023-06-22T03:56:36;19.15;;;17.05;;
37535;SDS011;23379;51.554;6.736;2023-06-22T03:59:03;19.77;;;17.67;;
37535;SDS011;23379;51.554;6.736;2023-06-22T04:01:28;19.75;;;16.77;;
37535;SDS011;23379;51.554;6.736;2023-06-22T04:03:54;25.42;;;17.83;;
37535;SDS011;23379;51.554;6.736;2023-06-22T04:06:19;26.58;;;18.60;;
37535;SDS011;23379;51.554;6.736;2023-06-22T04:08:45;23.30;;;19.00;;
37535;SDS011;23379;51.554;6.736;2023-06-22T04:11:15;20.08;;;17.85;;
37535;SDS011;23379;51.554;6.736;2023-06-22T04:13:41;20.05;;;16.98;;
37535;SDS011;23379;51.554;6.736;2023-06-22T04:16:06;23.65;;;18.02;;
37535;SDS011;23379;51.554;6.736;2023-06-22T04:18:32;21.42;;;17.08;;
37535;SDS011;23379;51.554;6.736;2023-06-22T04:20:57;21.52;;;16.95;;
37535;SDS011;23379;51.554;6.736;2023-06-22T04:23:23;19.77;;;17.13;;
37535;SDS011;23379;51.554;6.736;2023-06-22T04:25:48;22.42;;;18.38;;
37535;SDS011;23379;51.554;6.736;2023-06-22T04:28:13;20.95;;;18.17;;
37535;SDS011;23379;51.554;6.736;2023-06-22T04:30:39;21.63;;;17.88;;
37535;SDS011;23379;51.554;6.736;2023-06-22T04:33:14;22.77;;;18.88;;
37535;SDS011;23379;51.554;6.736;2023-06-22T04:35:40;19.15;;;17.13;;
37535;SDS011;23379;51.554;6.736;2023-06-22T04:38:06;19.45;;;16.45;;
37535;SDS011;23379;51.554;6.736;2023-06-22T04:40:32;22.50;;;16.85;;
37535;SDS011;23379;51.554;6.736;2023-06-22T04:43:09;16.98;;;14.70;;
37535;SDS011;23379;51.554;6.736;2023-06-22T04:45:35;21.95;;;16.23;;
37535;SDS011;23379;51.554;6.736;2023-06-22T04:48:03;21.27;;;16.52;;
37535;SDS011;23379;51.554;6.736;2023-06-22T04:50:29;21.17;;;16.00;;
37535;SDS011;23379;51.554;6.736;2023-06-22T04:52:54;25.58;;;16.73;;
37535;SDS011;23379;51.554;6.736;2023-06-22T04:55:19;23.48;;;15.55;;
37535;SDS011;23379;51.554;6.736;2023-06-22T04:57:45;17.92;;;14.77;;
37535;SDS011;23379;51.554;6.736;2023-06-22T05:00:14;19.25;;;15.73;;
37535;SDS011;23379;51.554;6.736;2023-06-22T05:02:45;19.30;;;15.88;;
37535;SDS011;23379;51.554;6.736;2023-06-22T05:05:11;17.40;;;15.43;;
37535;SDS011;23379;51.554;6.736;2023-06-22T05:07:42;23.10;;;15.68;;
37535;SDS011;23379;51.554;6.736;2023-06-22T05:10:09;18.80;;;15.27;;
37535;SDS011;23379;51.554;6.736;2023-06-22T05:12:35;18.73;;;15.70;;
37535;SDS011;23379;51.554;6.736;2023-06-22T05:15:01;20.80;;;15.85;;
37535;SDS011;23379;51.554;6.736;2023-06-22T05:17:26;22.83;;;15.48;;
37535;SDS011;23379;51.554;6.736;2023-06-22T05:19:52;21.40;;;16.58;;
37535;SDS011;23379;51.554;6.736;2023-06-22T05:22:18;23.05;;;16.27;;
37535;SDS011;23379;51.554;6.736;2023-06-22T05:24:44;20.85;;;15.73;;
37535;SDS011;23379;51.554;6.736;2023-06-22T05:27:09;21.10;;;15.75;;
37535;SDS011;23379;51.554;6.736;2023-06-22T05:29:35;18.63;;;15.88;;
37535;SDS011;23379;51.554;6.736;2023-06-22T05:32:01;23.55;;;15.93;;
37535;SDS011;23379;51.554;6.736;2023-06-22T05:34:27;22.00;;;15.50;;
37535;SDS011;23379;51.554;6.736;2023-06-22T05:36:52;19.67;;;14.70;;
37535;SDS011;23379;51.554;6.736;2023-06-22T05:39:18;22.27;;;16.77;;
37535;SDS011;23379;51.554;6.736;2023-06-22T05:41:45;25.77;;;17.25;;
37535;SDS011;23379;51.554;6.736;2023-06-22T05:44:10;20.60;;;16.77;;
37535;SDS011;23379;51.554;6.736;2023-06-22T05:46:36;23.20;;;18.08;;
37535;SDS011;23379;51.554;6.736;2023-06-22T05:49:02;19.88;;;17.58;;
37535;SDS011;23379;51.554;6.736;2023-06-22T05:51:27;24.02;;;17.10;;
37535;SDS011;23379;51.554;6.736;2023-06-22T05:53:52;21.13;;;16.77;;
37535;SDS011;23379;51.554;6.736;2023-06-22T05:56:18;25.88;;;17.90;;
37535;SDS011;23379;51.554;6.736;2023-06-22T05:58:43;24.48;;;18.25;;
37535;SDS011;23379;51.554;6.736;2023-06-22T06:01:09;22.70;;;17.20;;
37535;SDS011;23379;51.554;6.736;2023-06-22T06:03:34;24.92;;;18.23;;
37535;SDS011;23379;51.554;6.736;2023-06-22T06:06:06;25.77;;;17.10;;
37535;SDS011;23379;51.554;6.736;2023-06-22T06:08:32;24.45;;;18.45;;
37535;SDS011;23379;51.554;6.736;2023-06-22T06:10:57;23.60;;;17.58;;
37535;SDS011;23379;51.554;6.736;2023-06-22T06:13:23;22.70;;;18.25;;
37535;SDS011;23379;51.554;6.736;2023-06-22T06:15:48;22.75;;;17.75;;
37535;SDS011;23379;51.554;6.736;2023-06-22T06:18:16;27.58;;;19.33;;
37535;SDS011;23379;51.554;6.736;2023-06-22T06:20:42;21.02;;;18.17;;
37535;SDS011;23379;51.554;6.736;2023-06-22T06:23:07;22.92;;;18.27;;
37535;SDS011;23379;51.554;6.736;2023-06-22T06:25:33;23.67;;;16.88;;
37535;SDS011;23379;51.554;6.736;2023-06-22T06:27:58;26.38;;;18.50;;
37535;SDS011;23379;51.554;6.736;2023-06-22T06:30:23;27.17;;;18.05;;
37535;SDS011;23379;51.554;6.736;2023-06-22T06:32:49;25.35;;;18.95;;
37535;SDS011;23379;51.554;6.736;2023-06-22T06:35:15;24.33;;;19.33;;
37535;SDS011;23379;51.554;6.736;2023-06-22T06:37:42;24.60;;;19.25;;
37535;SDS011;23379;51.554;6.736;2023-06-22T06:40:10;23.30;;;19.08;;
37535;SDS011;23379;51.554;6.736;2023-06-22T06:42:40;24.98;;;19.88;;
37535;SDS011;23379;51.554;6.736;2023-06-22T06:45:09;30.27;;;20.30;;
37535;SDS011;23379;51.554;6.736;2023-06-22T06:47:44;23.30;;;18.77;;
37535;SDS011;23379;51.554;6.736;2023-06-22T06:50:10;27.73;;;19.00;;
37535;SDS011;23379;51.554;6.736;2023-06-22T06:52:36;24.33;;;18.17;;
37535;SDS011;23379;51.554;6.736;2023-06-22T06:55:01;28.08;;;19.33;;
37535;SDS011;23379;51.554;6.736;2023-06-22T06:57:29;22.80;;;18.00;;
37535;SDS011;23379;51.554;6.736;2023-06-22T06:59:55;23.98;;;19.15;;
37535;SDS011;23379;51.554;6.736;2023-06-22T07:02:21;23.27;;;19.17;;
37535;SDS011;23379;51.554;6.736;2023-06-22T07:04:47;22.88;;;19.30;;
37535;SDS011;23379;51.554;6.736;2023-06-22T07:07:13;25.63;;;20.90;;
37535;SDS011;23379;51.554;6.736;2023-06-22T07:09:39;30.13;;;20.88;;
37535;SDS011;23379;51.554;6.736;2023-06-22T07:12:04;22.80;;;20.33;;
37535;SDS011;23379;51.554;6.736;2023-06-22T07:14:30;24.80;;;20.95;;
37535;SDS011;23379;51.554;6.736;2023-06-22T07:16:56;25.58;;;21.08;;
37535;SDS011;23379;51.554;6.736;2023-06-22T07:19:25;25.17;;;20.35;;
37535;SDS011;23379;51.554;6.736;2023-06-22T07:21:52;25.52;;;20.02;;
37535;SDS011;23379;51.554;6.736;2023-06-22T07:24:20;29.45;;;19.80;;
37535;SDS011;23379;51.554;6.736;2023-06-22T07:26:49;25.10;;;19.55;;
37535;SDS011;23379;51.554;6.736;2023-06-22T07:29:19;26.30;;;20.27;;
37535;SDS011;23379;51.554;6.736;2023-06-22T07:31:46;23.98;;;20.52;;
37535;SDS011;23379;51.554;6.736;2023-06-22T07:34:12;22.17;;;19.75;;
37535;SDS011;23379;51.554;6.736;2023-06-22T07:36:38;23.88;;;19.80;;
37535;SDS011;23379;51.554;6.736;2023-06-22T07:39:03;27.30;;;19.70;;
37535;SDS011;23379;51.554;6.736;2023-06-22T07:41:29;26.67;;;20.92;;
37535;SDS011;23379;51.554;6.736;2023-06-22T07:43:55;25.60;;;20.92;;
37535;SDS011;23379;51.554;6.736;2023-06-22T07:46:20;25.23;;;21.10;;
37535;SDS011;23379;51.554;6.736;2023-06-22T07:48:45;29.52;;;20.55;;
37535;SDS011;23379;51.554;6.736;2023-06-22T07:51:11;24.52;;;19.98;;
37535;SDS011;23379;51.554;6.736;2023-06-22T07:53:43;23.42;;;20.02;;
37535;SDS011;23379;51.554;6.736;2023-06-22T07:56:12;26.58;;;20.25;;
37535;SDS011;23379;51.554;6.736;2023-06-22T07:58:37;24.48;;;19.92;;
37535;SDS011;23379;51.554;6.736;2023-06-22T08:01:03;22.90;;;18.90;;
37535;SDS011;23379;51.554;6.736;2023-06-22T08:03:29;24.38;;;19.00;;
37535;SDS011;23379;51.554;6.736;2023-06-22T08:05:54;26.30;;;18.88;;
37535;SDS011;23379;51.554;6.736;2023-06-22T08:08:19;28.15;;;19.27;;
37535;SDS011;23379;51.554;6.736;2023-06-22T08:10:45;23.55;;;18.67;;
37535;SDS011;23379;51.554;6.736;2023-06-22T08:13:10;24.10;;;18.55;;
37535;SDS011;23379;51.554;6.736;2023-06-22T08:15:36;23.63;;;18.23;;
37535;SDS011;23379;51.554;6.736;2023-06-22T08:18:01;22.10;;;18.13;;
37535;SDS011;23379;51.554;6.736;2023-06-22T08:20:26;25.48;;;19.10;;
37535;SDS011;23379;51.554;6.736;2023-06-22T08:22:52;22.33;;;18.50;;
37535;SDS011;23379;51.554;6.736;2023-06-22T08:25:19;24.60;;;19.08;;
37535;SDS011;23379;51.554;6.736;2023-06-22T08:27:45;24.83;;;19.63;;
37535;SDS011;23379;51.554;6.736;2023-06-22T08:30:12;23.85;;;18.58;;
37535;SDS011;23379;51.554;6.736;2023-06-22T08:32:38;23.45;;;18.13;;
37535;SDS011;23379;51.554;6.736;2023-06-22T08:35:03;22.15;;;18.17;;
37535;SDS011;23379;51.554;6.736;2023-06-22T08:37:31;22.42;;;18.27;;
37535;SDS011;23379;51.554;6.736;2023-06-22T08:40:00;20.17;;;17.98;;
37535;SDS011;23379;51.554;6.736;2023-06-22T08:42:26;23.52;;;17.83;;
37535;SDS011;23379;51.554;6.736;2023-06-22T08:44:52;25.00;;;18.35;;
37535;SDS011;23379;51.554;6.736;2023-06-22T08:47:18;22.85;;;19.48;;
37535;SDS011;23379;51.554;6.736;2023-06-22T08:49:44;24.38;;;19.38;;
37535;SDS011;23379;51.554;6.736;2023-06-22T08:52:09;25.83;;;19.38;;
37535;SDS011;23379;51.554;6.736;2023-06-22T08:54:35;25.85;;;20.38;;
37535;SDS011;23379;51.554;6.736;2023-06-22T08:57:01;26.50;;;19.13;;
37535;SDS011;23379;51.554;6.736;2023-06-22T08:59:27;27.80;;;19.20;;
37535;SDS011;23379;51.554;6.736;2023-06-22T09:01:53;26.30;;;18.67;;
37535;SDS011;23379;51.554;6.736;2023-06-22T09:04:18;23.45;;;19.05;;
37535;SDS011;23379;51.554;6.736;2023-06-22T09:06:43;22.92;;;18.20;;
37535;SDS011;23379;51.554;6.736;2023-06-22T09:09:12;22.08;;;17.05;;
37535;SDS011;23379;51.554;6.736;2023-06-22T09:11:38;24.23;;;20.20;;
37535;SDS011;23379;51.554;6.736;2023-06-22T09:14:03;23.52;;;20.95;;
37535;SDS011;23379;51.554;6.736;2023-06-22T09:16:29;20.90;;;18.63;;
37535;SDS011;23379;51.554;6.736;2023-06-22T09:18:55;27.70;;;19.40;;
37535;SDS011;23379;51.554;6.736;2023-06-22T09:21:20;22.60;;;20.20;;
37535;SDS011;23379;51.554;6.736;2023-06-22T09:23:46;23.92;;;18.60;;
37535;SDS011;23379;51.554;6.736;2023-06-22T09:26:15;29.50;;;19.58;;
37535;SDS011;23379;51.554;6.736;2023-06-22T09:28:41;23.67;;;18.77;;
37535;SDS011;23379;51.554;6.736;2023-06-22T09:31:06;22.88;;;17.70;;
37535;SDS011;23379;51.554;6.736;2023-06-22T09:33:32;21.25;;;17.48;;
37535;SDS011;23379;51.554;6.736;2023-06-22T09:35:57;20.33;;;16.90;;
37535;SDS011;23379;51.554;6.736;2023-06-22T09:38:22;24.63;;;16.13;;
37535;SDS011;23379;51.554;6.736;2023-06-22T09:40:48;20.55;;;17.50;;
37535;SDS011;23379;51.554;6.736;2023-06-22T09:43:13;18.30;;;15.55;;
37535;SDS011;23379;51.554;6.736;2023-06-22T09:45:39;18.50;;;15.93;;
37535;SDS011;23379;51.554;6.736;2023-06-22T09:48:04;17.35;;;15.60;;
37535;SDS011;23379;51.554;6.736;2023-06-22T09:50:30;21.58;;;16.20;;
37535;SDS011;23379;51.554;6.736;2023-06-22T09:52:55;19.83;;;15.68;;
37535;SDS011;23379;51.554;6.736;2023-06-22T09:55:21;19.73;;;15.32;;
37535;SDS011;23379;51.554;6.736;2023-06-22T09:57:46;18.48;;;16.02;;
37535;SDS011;23379;51.554;6.736;2023-06-22T10:00:12;22.98;;;17.08;;
37535;SDS011;23379;51.554;6.736;2023-06-22T10:02:40;18.35;;;16.00;;
37535;SDS011;23379;51.554;6.736;2023-06-22T10:05:07;19.45;;;15.02;;
37535;SDS011;23379;51.554;6.736;2023-06-22T10:07:32;20.63;;;15.35;;
37535;SDS011;23379;51.554;6.736;2023-06-22T10:09:58;18.10;;;16.15;;
37535;SDS011;23379;51.554;6.736;2023-06-22T10:12:23;22.02;;;15.35;;
37535;SDS011;23379;51.554;6.736;2023-06-22T10:14:49;17.65;;;15.18;;
37535;SDS011;23379;51.554;6.736;2023-06-22T10:17:14;19.63;;;14.77;;
37535;SDS011;23379;51.554;6.736;2023-06-22T10:19:39;16.85;;;14.27;;
37535;SDS011;23379;51.554;6.736;2023-06-22T10:22:06;20.95;;;15.05;;
37535;SDS011;23379;51.554;6.736;2023-06-22T10:24:32;21.35;;;16.10;;
37535;SDS011;23379;51.554;6.736;2023-06-22T10:26:57;20.45;;;15.48;;
37535;SDS011;23379;51.554;6.736;2023-06-22T10:29:22;18.20;;;14.68;;
37535;SDS011;23379;51.554;6.736;2023-06-22T10:31:48;17.33;;;14.48;;
37535;SDS011;23379;51.554;6.736;2023-06-22T10:34:13;16.02;;;13.00;;
37535;SDS011;23379;51.554;6.736;2023-06-22T10:36:38;17.58;;;13.63;;
37535;SDS011;23379;51.554;6.736;2023-06-22T10:39:04;16.60;;;12.80;;
37535;SDS011;23379;51.554;6.736;2023-06-22T10:41:30;18.05;;;12.23;;
37535;SDS011;23379;51.554;6.736;2023-06-22T10:43:56;16.25;;;12.93;;
37535;SDS011;23379;51.554;6.736;2023-06-22T10:46:23;14.25;;;12.05;;
37535;SDS011;23379;51.554;6.736;2023-06-22T10:48:49;13.40;;;11.57;;
37535;SDS011;23379;51.554;6.736;2023-06-22T10:51:15;14.55;;;12.43;;
37535;SDS011;23379;51.554;6.736;2023-06-22T10:53:40;16.15;;;12.80;;
37535;SDS011;23379;51.554;6.736;2023-06-22T10:56:06;13.60;;;11.70;;
37535;SDS011;23379;51.554;6.736;2023-06-22T10:58:31;14.20;;;11.75;;
37535;SDS011;23379;51.554;6.736;2023-06-22T11:00:57;13.80;;;12.20;;
37535;SDS011;23379;51.554;6.736;2023-06-22T11:03:24;18.92;;;12.75;;
37535;SDS011;23379;51.554;6.736;2023-06-22T11:05:49;17.15;;;12.38;;
37535;SDS011;23379;51.554;6.736;2023-06-22T11:08:14;15.73;;;12.45;;
37535;SDS011;23379;51.554;6.736;2023-06-22T11:10:40;13.10;;;11.77;;
37535;SDS011;23379;51.554;6.736;2023-06-22T11:13:05;14.20;;;12.65;;
37535;SDS011;23379;51.554;6.736;2023-06-22T11:15:34;14.07;;;11.52;;
37535;SDS011;23379;51.554;6.736;2023-06-22T11:18:01;15.73;;;12.57;;
37535;SDS011;23379;51.554;6.736;2023-06-22T11:20:26;13.80;;;12.40;;
37535;SDS011;23379;51.554;6.736;2023-06-22T11:22:52;20.40;;;12.35;;
37535;SDS011;23379;51.554;6.736;2023-06-22T11:25:17;16.17;;;12.35;;
37535;SDS011;23379;51.554;6.736;2023-06-22T11:27:42;14.77;;;12.23;;
37535;SDS011;23379;51.554;6.736;2023-06-22T11:30:08;15.60;;;12.05;;
37535;SDS011;23379;51.554;6.736;2023-06-22T11:32:34;17.20;;;11.63;;
37535;SDS011;23379;51.554;6.736;2023-06-22T11:34:59;17.80;;;12.20;;
37535;SDS011;23379;51.554;6.736;2023-06-22T11:37:25;18.42;;;12.90;;
37535;SDS011;23379;51.554;6.736;2023-06-22T11:39:50;13.57;;;12.10;;
37535;SDS011;23379;51.554;6.736;2023-06-22T11:42:16;16.85;;;12.95;;
37535;SDS011;23379;51.554;6.736;2023-06-22T11:44:42;14.48;;;12.88;;
37535;SDS011;23379;51.554;6.736;2023-06-22T11:47:08;19.30;;;14.23;;
37535;SDS011;23379;51.554;6.736;2023-06-22T11:49:34;21.88;;;14.10;;
37535;SDS011;23379;51.554;6.736;2023-06-22T11:51:59;19.08;;;14.35;;
37535;SDS011;23379;51.554;6.736;2023-06-22T11:54:24;21.48;;;15.65;;
37535;SDS011;23379;51.554;6.736;2023-06-22T11:56:50;20.92;;;15.60;;
37535;SDS011;23379;51.554;6.736;2023-06-22T11:59:15;20.55;;;16.27;;
37535;SDS011;23379;51.554;6.736;2023-06-22T12:01:41;25.10;;;17.77;;
37535;SDS011;23379;51.554;6.736;2023-06-22T12:04:06;21.42;;;18.02;;
37535;SDS011;23379;51.554;6.736;2023-06-22T12:06:32;20.85;;;18.65;;
37535;SDS011;23379;51.554;6.736;2023-06-22T12:08:58;21.02;;;18.67;;
37535;SDS011;23379;51.554;6.736;2023-06-22T12:11:23;21.60;;;18.75;;
37535;SDS011;23379;51.554;6.736;2023-06-22T12:13:49;24.92;;;20.92;;
37535;SDS011;23379;51.554;6.736;2023-06-22T12:16:14;26.73;;;20.83;;
37535;SDS011;23379;51.554;6.736;2023-06-22T12:18:40;26.85;;;22.58;;
37535;SDS011;23379;51.554;6.736;2023-06-22T12:21:05;27.08;;;22.92;;
37535;SDS011;23379;51.554;6.736;2023-06-22T12:23:31;24.80;;;21.75;;
37535;SDS011;23379;51.554;6.736;2023-06-22T12:25:56;29.40;;;22.95;;
37535;SDS011;23379;51.554;6.736;2023-06-22T12:28:23;33.15;;;26.45;;
37535;SDS011;23379;51.554;6.736;2023-06-22T12:30:48;29.77;;;26.60;;
37535;SDS011;23379;51.554;6.736;2023-06-22T12:33:14;33.38;;;25.75;;
37535;SDS011;23379;51.554;6.736;2023-06-22T12:35:39;30.40;;;23.58;;
37535;SDS011;23379;51.554;6.736;2023-06-22T12:38:04;26.02;;;22.23;;
37535;SDS011;23379;51.554;6.736;2023-06-22T12:40:32;20.38;;;18.17;;
37535;SDS011;23379;51.554;6.736;2023-06-22T12:42:58;24.48;;;15.85;;
37535;SDS011;23379;51.554;6.736;2023-06-22T12:45:23;17.20;;;12.90;;
37535;SDS011;23379;51.554;6.736;2023-06-22T12:47:49;16.02;;;14.13;;
37535;SDS011;23379;51.554;6.736;2023-06-22T12:50:15;17.38;;;14.65;;
37535;SDS011;23379;51.554;6.736;2023-06-22T12:52:40;16.77;;;14.85;;
37535;SDS011;23379;51.554;6.736;2023-06-22T12:55:06;18.00;;;15.68;;
37535;SDS011;23379;51.554;6.736;2023-06-22T12:57:32;19.02;;;17.00;;
37535;SDS011;23379;51.554;6.736;2023-06-22T12:59:57;19.38;;;17.45;;
37535;SDS011;23379;51.554;6.736;2023-06-22T13:02:25;19.67;;;17.55;;
37535;SDS011;23379;51.554;6.736;2023-06-22T13:04:50;23.70;;;19.30;;
37535;SDS011;23379;51.554;6.736;2023-06-22T13:07:16;21.52;;;19.02;;
37535;SDS011;23379;51.554;6.736;2023-06-22T13:09:41;23.67;;;19.88;;
37535;SDS011;23379;51.554;6.736;2023-06-22T13:12:07;22.08;;;19.35;;
37535;SDS011;23379;51.554;6.736;2023-06-22T13:14:32;23.00;;;19.77;;
37535;SDS011;23379;51.554;6.736;2023-06-22T13:16:58;23.65;;;18.58;;
37535;SDS011;23379;51.554;6.736;2023-06-22T13:19:23;25.30;;;19.73;;
37535;SDS011;23379;51.554;6.736;2023-06-22T13:21:49;23.45;;;20.77;;
37535;SDS011;23379;51.554;6.736;2023-06-22T13:24:15;23.05;;;20.73;;
37535;SDS011;23379;51.554;6.736;2023-06-22T13:26:41;22.88;;;20.58;;
37535;SDS011;23379;51.554;6.736;2023-06-22T13:29:06;26.15;;;21.65;;
37535;SDS011;23379;51.554;6.736;2023-06-22T13:31:32;24.05;;;20.40;;
37535;SDS011;23379;51.554;6.736;2023-06-22T13:33:57;25.48;;;20.85;;
37535;SDS011;23379;51.554;6.736;2023-06-22T13:36:23;23.70;;;20.75;;
37535;SDS011;23379;51.554;6.736;2023-06-22T13:38:48;26.77;;;23.10;;
37535;SDS011;23379;51.554;6.736;2023-06-22T13:41:13;26.23;;;20.98;;
37535;SDS011;23379;51.554;6.736;2023-06-22T13:43:39;23.95;;;21.40;;
37535;SDS011;23379;51.554;6.736;2023-06-22T13:46:04;25.95;;;23.13;;
37535;SDS011;23379;51.554;6.736;2023-06-22T13:48:30;26.92;;;23.90;;
37535;SDS011;23379;51.554;6.736;2023-06-22T13:50:55;28.02;;;23.85;;
37535;SDS011;23379;51.554;6.736;2023-06-22T13:53:20;31.27;;;25.63;;
37535;SDS011;23379;51.554;6.736;2023-06-22T13:55:46;29.70;;;26.60;;
37535;SDS011;23379;51.554;6.736;2023-06-22T13:58:12;27.88;;;24.98;;
37535;SDS011;23379;51.554;6.736;2023-06-22T14:00:38;27.25;;;23.85;;
37535;SDS011;23379;51.554;6.736;2023-06-22T14:03:03;28.27;;;25.10;;
37535;SDS011;23379;51.554;6.736;2023-06-22T14:05:28;27.98;;;24.98;;
37535;SDS011;23379;51.554;6.736;2023-06-22T14:07:54;28.15;;;25.13;;
37535;SDS011;23379;51.554;6.736;2023-06-22T14:10:19;28.50;;;25.60;;
37535;SDS011;23379;51.554;6.736;2023-06-22T14:12:45;29.75;;;25.40;;
37535;SDS011;23379;51.554;6.736;2023-06-22T14:15:10;28.50;;;25.00;;
37535;SDS011;23379;51.554;6.736;2023-06-22T14:17:36;29.20;;;26.05;;
37535;SDS011;23379;51.554;6.736;2023-06-22T14:20:01;27.50;;;24.50;;
37535;SDS011;23379;51.554;6.736;2023-06-22T14:22:28;30.42;;;24.50;;
37535;SDS011;23379;51.554;6.736;2023-06-22T14:24:54;31.23;;;27.83;;
37535;SDS011;23379;51.554;6.736;2023-06-22T14:27:22;30.30;;;27.17;;
37535;SDS011;23379;51.554;6.736;2023-06-22T14:29:48;29.30;;;26.15;;